sensor_id;sensor_type;location;lat;lon;timestamp;P1;durP1;ratioP1;P2;durP2;ratioP2
78989;SDS011;68390;52.130;21.218;2023-09-19T00:00:33;16.27;;;10.95;;
78989;SDS011;68390;52.130;21.218;2023-09-19T00:02:59;15.80;;;10.40;;
78989;SDS011;68390;52.130;21.218;2023-09-19T00:05:28;14.65;;;10.43;;
78989;SDS011;68390;52.130;21.218;2023-09-19T00:07:55;17.95;;;11.10;;
78989;SDS011;68390;52.130;21.218;2023-09-19T00:12:55;15.80;;;10.48;;
78989;SDS011;68390;52.130;21.218;2023-09-19T00:15:24;14.65;;;9.77;;
78989;SDS011;68390;52.130;21.218;2023-09-19T00:17:51;13.63;;;10.30;;
78989;SDS011;68390;52.130;21.218;2023-09-19T00:20:17;14.25;;;10.35;;
78989;SDS011;68390;52.130;21.218;2023-09-19T00:22:43;17.10;;;11.02;;
78989;SDS011;68390;52.130;21.218;2023-09-19T00:25:09;17.67;;;11.10;;
78989;SDS011;68390;52.130;21.218;2023-09-19T00:27:37;15.77;;;10.57;;
78989;SDS011;68390;52.130;21.218;2023-09-19T00:30:05;14.73;;;10.80;;
78989;SDS011;68390;52.130;21.218;2023-09-19T00:34:59;13.20;;;9.27;;
78989;SDS011;68390;52.130;21.218;2023-09-19T00:37:24;16.80;;;10.93;;
78989;SDS011;68390;52.130;21.218;2023-09-19T00:39:52;18.13;;;11.43;;
78989;SDS011;68390;52.130;21.218;2023-09-19T00:42:19;17.27;;;11.20;;
78989;SDS011;68390;52.130;21.218;2023-09-19T00:44:46;16.27;;;10.25;;
78989;SDS011;68390;52.130;21.218;2023-09-19T00:47:12;15.85;;;11.27;;
78989;SDS011;68390;52.130;21.218;2023-09-19T00:49:43;14.30;;;9.82;;
78989;SDS011;68390;52.130;21.218;2023-09-19T00:52:10;17.42;;;11.05;;
78989;SDS011;68390;52.130;21.218;2023-09-19T00:54:37;16.75;;;10.40;;
78989;SDS011;68390;52.130;21.218;2023-09-19T00:57:02;16.60;;;10.80;;
78989;SDS011;68390;52.130;21.218;2023-09-19T00:59:28;14.48;;;10.55;;
78989;SDS011;68390;52.130;21.218;2023-09-19T01:01:56;15.77;;;10.90;;
78989;SDS011;68390;52.130;21.218;2023-09-19T01:04:21;16.77;;;11.27;;
78989;SDS011;68390;52.130;21.218;2023-09-19T01:06:47;16.27;;;11.05;;
78989;SDS011;68390;52.130;21.218;2023-09-19T01:09:18;16.08;;;10.75;;
78989;SDS011;68390;52.130;21.218;2023-09-19T01:11:45;17.70;;;11.20;;
78989;SDS011;68390;52.130;21.218;2023-09-19T01:25:52;14.63;;;10.50;;
78989;SDS011;68390;52.130;21.218;2023-09-19T01:28:29;17.98;;;11.57;;
78989;SDS011;68390;52.130;21.218;2023-09-19T01:30:58;15.82;;;10.57;;
78989;SDS011;68390;52.130;21.218;2023-09-19T01:33:26;14.68;;;10.63;;
78989;SDS011;68390;52.130;21.218;2023-09-19T01:35:52;15.82;;;10.68;;
78989;SDS011;68390;52.130;21.218;2023-09-19T01:38:18;17.77;;;11.20;;
78989;SDS011;68390;52.130;21.218;2023-09-19T01:40:47;17.42;;;11.02;;
78989;SDS011;68390;52.130;21.218;2023-09-19T01:43:31;16.90;;;11.13;;
78989;SDS011;68390;52.130;21.218;2023-09-19T01:48:49;14.25;;;10.18;;
78989;SDS011;68390;52.130;21.218;2023-09-19T01:51:48;14.32;;;10.13;;
78989;SDS011;68390;52.130;21.218;2023-09-19T01:54:46;18.10;;;11.07;;
78989;SDS011;68390;52.130;21.218;2023-09-19T01:57:17;16.67;;;11.55;;
78989;SDS011;68390;52.130;21.218;2023-09-19T02:00:07;14.93;;;10.68;;
78989;SDS011;68390;52.130;21.218;2023-09-19T02:02:38;15.85;;;10.13;;
78989;SDS011;68390;52.130;21.218;2023-09-19T02:05:09;15.95;;;11.23;;
78989;SDS011;68390;52.130;21.218;2023-09-19T02:07:35;14.02;;;10.80;;
78989;SDS011;68390;52.130;21.218;2023-09-19T02:10:03;14.95;;;10.85;;
78989;SDS011;68390;52.130;21.218;2023-09-19T02:12:30;16.77;;;11.80;;
78989;SDS011;68390;52.130;21.218;2023-09-19T02:14:57;15.68;;;10.55;;
78989;SDS011;68390;52.130;21.218;2023-09-19T02:17:24;16.05;;;12.00;;
78989;SDS011;68390;52.130;21.218;2023-09-19T02:19:55;17.23;;;11.15;;
78989;SDS011;68390;52.130;21.218;2023-09-19T02:22:23;17.67;;;11.85;;
78989;SDS011;68390;52.130;21.218;2023-09-19T02:24:49;18.77;;;11.30;;
78989;SDS011;68390;52.130;21.218;2023-09-19T02:27:16;15.23;;;10.05;;
78989;SDS011;68390;52.130;21.218;2023-09-19T02:29:42;14.77;;;11.27;;
78989;SDS011;68390;52.130;21.218;2023-09-19T02:32:07;16.63;;;11.50;;
78989;SDS011;68390;52.130;21.218;2023-09-19T02:34:34;15.63;;;11.23;;
78989;SDS011;68390;52.130;21.218;2023-09-19T02:37:01;16.65;;;11.55;;
78989;SDS011;68390;52.130;21.218;2023-09-19T02:39:30;16.80;;;11.23;;
78989;SDS011;68390;52.130;21.218;2023-09-19T02:41:55;18.48;;;10.75;;
78989;SDS011;68390;52.130;21.218;2023-09-19T02:44:20;16.73;;;11.03;;
78989;SDS011;68390;52.130;21.218;2023-09-19T02:46:46;15.88;;;10.43;;
78989;SDS011;68390;52.130;21.218;2023-09-19T02:49:12;18.00;;;11.18;;
78989;SDS011;68390;52.130;21.218;2023-09-19T02:51:38;15.57;;;11.82;;
78989;SDS011;68390;52.130;21.218;2023-09-19T02:54:03;15.20;;;10.90;;
78989;SDS011;68390;52.130;21.218;2023-09-19T02:56:29;15.73;;;10.55;;
78989;SDS011;68390;52.130;21.218;2023-09-19T02:58:56;18.30;;;11.35;;
78989;SDS011;68390;52.130;21.218;2023-09-19T03:01:21;16.33;;;11.40;;
78989;SDS011;68390;52.130;21.218;2023-09-19T03:03:47;17.58;;;11.05;;
78989;SDS011;68390;52.130;21.218;2023-09-19T03:06:13;15.85;;;10.88;;
78989;SDS011;68390;52.130;21.218;2023-09-19T03:08:38;16.60;;;10.57;;
78989;SDS011;68390;52.130;21.218;2023-09-19T03:11:07;17.92;;;10.90;;
78989;SDS011;68390;52.130;21.218;2023-09-19T03:13:34;16.58;;;10.93;;
78989;SDS011;68390;52.130;21.218;2023-09-19T03:16:02;15.30;;;10.63;;
78989;SDS011;68390;52.130;21.218;2023-09-19T03:18:30;14.18;;;11.10;;
78989;SDS011;68390;52.130;21.218;2023-09-19T03:20:57;15.25;;;10.50;;
78989;SDS011;68390;52.130;21.218;2023-09-19T03:23:25;18.08;;;11.93;;
78989;SDS011;68390;52.130;21.218;2023-09-19T03:25:51;15.05;;;11.00;;
78989;SDS011;68390;52.130;21.218;2023-09-19T03:28:17;19.63;;;12.30;;
78989;SDS011;68390;52.130;21.218;2023-09-19T03:30:43;17.30;;;11.55;;
78989;SDS011;68390;52.130;21.218;2023-09-19T03:33:08;15.98;;;10.68;;
78989;SDS011;68390;52.130;21.218;2023-09-19T03:35:37;16.95;;;11.18;;
78989;SDS011;68390;52.130;21.218;2023-09-19T03:38:03;17.48;;;11.75;;
78989;SDS011;68390;52.130;21.218;2023-09-19T03:40:29;19.08;;;11.40;;
78989;SDS011;68390;52.130;21.218;2023-09-19T03:42:55;18.63;;;11.35;;
78989;SDS011;68390;52.130;21.218;2023-09-19T03:45:20;19.67;;;11.98;;
78989;SDS011;68390;52.130;21.218;2023-09-19T03:47:45;18.13;;;11.68;;
78989;SDS011;68390;52.130;21.218;2023-09-19T03:50:14;17.83;;;11.48;;
78989;SDS011;68390;52.130;21.218;2023-09-19T03:52:42;17.75;;;11.85;;
78989;SDS011;68390;52.130;21.218;2023-09-19T03:55:11;18.33;;;11.90;;
78989;SDS011;68390;52.130;21.218;2023-09-19T03:57:36;18.58;;;11.50;;
78989;SDS011;68390;52.130;21.218;2023-09-19T04:00:02;17.35;;;10.35;;
78989;SDS011;68390;52.130;21.218;2023-09-19T04:02:30;16.63;;;11.23;;
78989;SDS011;68390;52.130;21.218;2023-09-19T04:04:58;15.80;;;10.35;;
78989;SDS011;68390;52.130;21.218;2023-09-19T04:07:23;17.25;;;11.70;;
78989;SDS011;68390;52.130;21.218;2023-09-19T04:09:50;14.10;;;10.65;;
78989;SDS011;68390;52.130;21.218;2023-09-19T04:12:18;14.32;;;11.00;;
78989;SDS011;68390;52.130;21.218;2023-09-19T04:14:44;14.88;;;10.68;;
78989;SDS011;68390;52.130;21.218;2023-09-19T04:17:09;18.33;;;10.73;;
78989;SDS011;68390;52.130;21.218;2023-09-19T04:19:35;19.48;;;10.50;;
78989;SDS011;68390;52.130;21.218;2023-09-19T04:22:01;18.77;;;10.93;;
78989;SDS011;68390;52.130;21.218;2023-09-19T04:24:26;18.10;;;10.68;;
78989;SDS011;68390;52.130;21.218;2023-09-19T04:26:52;17.80;;;10.98;;
78989;SDS011;68390;52.130;21.218;2023-09-19T04:29:17;14.68;;;10.02;;
78989;SDS011;68390;52.130;21.218;2023-09-19T04:31:44;20.10;;;11.50;;
78989;SDS011;68390;52.130;21.218;2023-09-19T04:34:10;18.25;;;11.48;;
78989;SDS011;68390;52.130;21.218;2023-09-19T04:36:42;20.73;;;11.65;;
78989;SDS011;68390;52.130;21.218;2023-09-19T04:39:08;15.88;;;10.82;;
78989;SDS011;68390;52.130;21.218;2023-09-19T04:41:35;18.50;;;10.35;;
78989;SDS011;68390;52.130;21.218;2023-09-19T04:44:03;15.98;;;10.68;;
78989;SDS011;68390;52.130;21.218;2023-09-19T04:46:30;15.57;;;9.73;;
78989;SDS011;68390;52.130;21.218;2023-09-19T04:48:55;17.48;;;11.55;;
78989;SDS011;68390;52.130;21.218;2023-09-19T04:51:20;16.85;;;11.10;;
78989;SDS011;68390;52.130;21.218;2023-09-19T04:53:46;16.90;;;11.00;;
78989;SDS011;68390;52.130;21.218;2023-09-19T04:56:11;17.00;;;11.00;;
78989;SDS011;68390;52.130;21.218;2023-09-19T04:58:36;17.90;;;10.52;;
78989;SDS011;68390;52.130;21.218;2023-09-19T05:01:02;16.70;;;10.67;;
78989;SDS011;68390;52.130;21.218;2023-09-19T05:03:28;15.70;;;10.35;;
78989;SDS011;68390;52.130;21.218;2023-09-19T05:05:53;15.82;;;10.60;;
78989;SDS011;68390;52.130;21.218;2023-09-19T05:08:19;15.02;;;10.88;;
78989;SDS011;68390;52.130;21.218;2023-09-19T05:10:44;18.42;;;10.80;;
78989;SDS011;68390;52.130;21.218;2023-09-19T05:13:10;16.35;;;10.65;;
78989;SDS011;68390;52.130;21.218;2023-09-19T05:15:37;17.88;;;10.27;;
78989;SDS011;68390;52.130;21.218;2023-09-19T05:18:02;17.98;;;11.32;;
78989;SDS011;68390;52.130;21.218;2023-09-19T05:20:28;16.58;;;10.05;;
78989;SDS011;68390;52.130;21.218;2023-09-19T05:23:01;19.00;;;10.30;;
78989;SDS011;68390;52.130;21.218;2023-09-19T05:25:33;22.13;;;11.18;;
78989;SDS011;68390;52.130;21.218;2023-09-19T05:28:03;15.93;;;10.02;;
78989;SDS011;68390;52.130;21.218;2023-09-19T05:30:31;16.13;;;10.10;;
78989;SDS011;68390;52.130;21.218;2023-09-19T05:32:57;16.00;;;9.95;;
78989;SDS011;68390;52.130;21.218;2023-09-19T05:35:23;15.65;;;10.05;;
78989;SDS011;68390;52.130;21.218;2023-09-19T05:37:51;16.27;;;9.40;;
78989;SDS011;68390;52.130;21.218;2023-09-19T05:40:18;16.17;;;9.98;;
78989;SDS011;68390;52.130;21.218;2023-09-19T05:42:45;19.25;;;10.98;;
78989;SDS011;68390;52.130;21.218;2023-09-19T05:45:11;19.08;;;10.93;;
78989;SDS011;68390;52.130;21.218;2023-09-19T05:47:38;17.45;;;10.02;;
78989;SDS011;68390;52.130;21.218;2023-09-19T05:50:10;18.48;;;10.60;;
78989;SDS011;68390;52.130;21.218;2023-09-19T05:52:36;14.40;;;9.68;;
78989;SDS011;68390;52.130;21.218;2023-09-19T05:55:06;15.70;;;10.50;;
78989;SDS011;68390;52.130;21.218;2023-09-19T05:57:35;19.92;;;11.48;;
78989;SDS011;68390;52.130;21.218;2023-09-19T06:00:00;20.33;;;11.43;;
78989;SDS011;68390;52.130;21.218;2023-09-19T06:02:26;17.23;;;10.75;;
78989;SDS011;68390;52.130;21.218;2023-09-19T06:04:55;17.35;;;11.18;;
78989;SDS011;68390;52.130;21.218;2023-09-19T06:07:21;18.38;;;11.02;;
78989;SDS011;68390;52.130;21.218;2023-09-19T06:09:51;20.58;;;10.70;;
78989;SDS011;68390;52.130;21.218;2023-09-19T06:12:18;19.75;;;10.70;;
78989;SDS011;68390;52.130;21.218;2023-09-19T06:14:44;20.27;;;10.75;;
78989;SDS011;68390;52.130;21.218;2023-09-19T06:17:09;20.13;;;10.17;;
78989;SDS011;68390;52.130;21.218;2023-09-19T06:19:35;16.77;;;10.43;;
78989;SDS011;68390;52.130;21.218;2023-09-19T06:22:01;17.50;;;10.70;;
78989;SDS011;68390;52.130;21.218;2023-09-19T06:24:26;13.07;;;9.60;;
78989;SDS011;68390;52.130;21.218;2023-09-19T06:26:52;14.63;;;9.20;;
78989;SDS011;68390;52.130;21.218;2023-09-19T06:29:17;16.42;;;9.82;;
78989;SDS011;68390;52.130;21.218;2023-09-19T06:31:43;11.13;;;8.40;;
78989;SDS011;68390;52.130;21.218;2023-09-19T06:34:09;20.45;;;9.80;;
78989;SDS011;68390;52.130;21.218;2023-09-19T06:36:35;15.23;;;10.00;;
78989;SDS011;68390;52.130;21.218;2023-09-19T06:39:01;18.13;;;9.88;;
78989;SDS011;68390;52.130;21.218;2023-09-19T06:41:29;14.32;;;9.20;;
78989;SDS011;68390;52.130;21.218;2023-09-19T06:43:55;15.25;;;9.30;;
78989;SDS011;68390;52.130;21.218;2023-09-19T06:46:20;17.48;;;9.80;;
78989;SDS011;68390;52.130;21.218;2023-09-19T06:48:45;17.17;;;9.88;;
78989;SDS011;68390;52.130;21.218;2023-09-19T06:51:12;18.38;;;9.85;;
78989;SDS011;68390;52.130;21.218;2023-09-19T06:53:40;17.27;;;9.80;;
78989;SDS011;68390;52.130;21.218;2023-09-19T06:56:06;17.75;;;9.80;;
78989;SDS011;68390;52.130;21.218;2023-09-19T06:58:31;16.90;;;9.88;;
78989;SDS011;68390;52.130;21.218;2023-09-19T07:00:57;14.65;;;9.10;;
78989;SDS011;68390;52.130;21.218;2023-09-19T07:03:22;15.47;;;8.83;;
78989;SDS011;68390;52.130;21.218;2023-09-19T07:05:51;11.75;;;7.93;;
78989;SDS011;68390;52.130;21.218;2023-09-19T07:08:17;13.10;;;8.98;;
78989;SDS011;68390;52.130;21.218;2023-09-19T07:10:45;18.80;;;9.45;;
78989;SDS011;68390;52.130;21.218;2023-09-19T07:13:13;14.63;;;9.35;;
78989;SDS011;68390;52.130;21.218;2023-09-19T07:15:41;12.55;;;9.15;;
78989;SDS011;68390;52.130;21.218;2023-09-19T07:18:12;12.68;;;8.60;;
78989;SDS011;68390;52.130;21.218;2023-09-19T07:20:41;12.00;;;8.07;;
78989;SDS011;68390;52.130;21.218;2023-09-19T07:23:14;14.73;;;8.95;;
78989;SDS011;68390;52.130;21.218;2023-09-19T07:25:46;16.67;;;9.73;;
78989;SDS011;68390;52.130;21.218;2023-09-19T07:28:14;14.02;;;9.95;;
78989;SDS011;68390;52.130;21.218;2023-09-19T07:30:40;17.25;;;8.80;;
78989;SDS011;68390;52.130;21.218;2023-09-19T07:33:06;16.00;;;9.30;;
78989;SDS011;68390;52.130;21.218;2023-09-19T07:35:32;14.45;;;9.38;;
78989;SDS011;68390;52.130;21.218;2023-09-19T07:37:58;12.88;;;9.45;;
78989;SDS011;68390;52.130;21.218;2023-09-19T07:40:26;15.18;;;9.50;;
78989;SDS011;68390;52.130;21.218;2023-09-19T07:42:54;15.00;;;9.05;;
78989;SDS011;68390;52.130;21.218;2023-09-19T07:45:26;19.38;;;9.43;;
78989;SDS011;68390;52.130;21.218;2023-09-19T07:47:52;14.68;;;9.10;;
78989;SDS011;68390;52.130;21.218;2023-09-19T07:50:19;15.27;;;9.77;;
78989;SDS011;68390;52.130;21.218;2023-09-19T07:52:45;16.35;;;10.00;;
78989;SDS011;68390;52.130;21.218;2023-09-19T07:55:11;16.35;;;9.52;;
78989;SDS011;68390;52.130;21.218;2023-09-19T07:57:45;13.38;;;9.50;;
78989;SDS011;68390;52.130;21.218;2023-09-19T08:00:11;13.10;;;9.88;;
78989;SDS011;68390;52.130;21.218;2023-09-19T08:02:37;15.05;;;9.48;;
78989;SDS011;68390;52.130;21.218;2023-09-19T08:05:07;14.48;;;10.00;;
78989;SDS011;68390;52.130;21.218;2023-09-19T08:07:36;15.18;;;9.40;;
78989;SDS011;68390;52.130;21.218;2023-09-19T08:10:03;15.90;;;9.88;;
78989;SDS011;68390;52.130;21.218;2023-09-19T08:12:29;18.17;;;10.38;;
78989;SDS011;68390;52.130;21.218;2023-09-19T08:14:55;16.10;;;9.10;;
78989;SDS011;68390;52.130;21.218;2023-09-19T08:17:21;14.98;;;10.07;;
78989;SDS011;68390;52.130;21.218;2023-09-19T08:19:48;12.48;;;10.00;;
78989;SDS011;68390;52.130;21.218;2023-09-19T08:22:17;14.50;;;9.35;;
78989;SDS011;68390;52.130;21.218;2023-09-19T08:24:43;18.15;;;10.32;;
78989;SDS011;68390;52.130;21.218;2023-09-19T08:27:09;16.63;;;9.50;;
78989;SDS011;68390;52.130;21.218;2023-09-19T08:29:35;16.67;;;9.90;;
78989;SDS011;68390;52.130;21.218;2023-09-19T08:32:01;17.52;;;11.23;;
78989;SDS011;68390;52.130;21.218;2023-09-19T08:34:26;16.30;;;11.00;;
78989;SDS011;68390;52.130;21.218;2023-09-19T08:36:55;16.23;;;10.52;;
78989;SDS011;68390;52.130;21.218;2023-09-19T08:39:26;14.82;;;10.27;;
78989;SDS011;68390;52.130;21.218;2023-09-19T08:44:24;15.35;;;11.43;;
78989;SDS011;68390;52.130;21.218;2023-09-19T08:46:50;17.83;;;11.48;;
78989;SDS011;68390;52.130;21.218;2023-09-19T08:49:24;18.17;;;12.00;;
78989;SDS011;68390;52.130;21.218;2023-09-19T08:52:04;16.75;;;10.63;;
78989;SDS011;68390;52.130;21.218;2023-09-19T08:54:37;15.45;;;11.43;;
78989;SDS011;68390;52.130;21.218;2023-09-19T08:57:06;15.85;;;11.25;;
78989;SDS011;68390;52.130;21.218;2023-09-19T08:59:39;19.67;;;11.55;;
78989;SDS011;68390;52.130;21.218;2023-09-19T09:02:12;15.82;;;11.60;;
78989;SDS011;68390;52.130;21.218;2023-09-19T09:04:42;17.08;;;11.90;;
78989;SDS011;68390;52.130;21.218;2023-09-19T09:07:12;14.82;;;10.68;;
78989;SDS011;68390;52.130;21.218;2023-09-19T09:09:38;17.00;;;11.25;;
78989;SDS011;68390;52.130;21.218;2023-09-19T09:12:11;18.85;;;11.32;;
78989;SDS011;68390;52.130;21.218;2023-09-19T09:14:38;17.67;;;11.13;;
78989;SDS011;68390;52.130;21.218;2023-09-19T09:17:05;19.27;;;12.02;;
78989;SDS011;68390;52.130;21.218;2023-09-19T09:19:30;16.88;;;12.45;;
78989;SDS011;68390;52.130;21.218;2023-09-19T09:22:05;13.85;;;10.43;;
78989;SDS011;68390;52.130;21.218;2023-09-19T09:24:31;15.32;;;11.43;;
78989;SDS011;68390;52.130;21.218;2023-09-19T09:27:03;15.80;;;12.27;;
78989;SDS011;68390;52.130;21.218;2023-09-19T09:32:30;18.90;;;12.68;;
78989;SDS011;68390;52.130;21.218;2023-09-19T09:34:59;18.10;;;12.52;;
78989;SDS011;68390;52.130;21.218;2023-09-19T09:37:26;20.50;;;11.75;;
78989;SDS011;68390;52.130;21.218;2023-09-19T09:39:56;16.27;;;11.80;;
78989;SDS011;68390;52.130;21.218;2023-09-19T09:42:43;17.33;;;11.73;;
78989;SDS011;68390;52.130;21.218;2023-09-19T09:45:12;18.40;;;12.48;;
78989;SDS011;68390;52.130;21.218;2023-09-19T09:47:42;20.48;;;11.68;;
78989;SDS011;68390;52.130;21.218;2023-09-19T09:52:57;18.92;;;11.50;;
78989;SDS011;68390;52.130;21.218;2023-09-19T09:56:17;13.88;;;9.18;;
78989;SDS011;68390;52.130;21.218;2023-09-19T09:58:35;18.70;;;11.57;;
78989;SDS011;68390;52.130;21.218;2023-09-19T10:01:02;15.13;;;10.70;;
78989;SDS011;68390;52.130;21.218;2023-09-19T10:03:37;18.60;;;10.95;;
78989;SDS011;68390;52.130;21.218;2023-09-19T10:06:09;14.27;;;9.80;;
78989;SDS011;68390;52.130;21.218;2023-09-19T10:09:00;11.85;;;8.68;;
78989;SDS011;68390;52.130;21.218;2023-09-19T10:12:05;14.77;;;9.43;;
78989;SDS011;68390;52.130;21.218;2023-09-19T10:14:34;14.25;;;9.25;;
78989;SDS011;68390;52.130;21.218;2023-09-19T10:17:03;15.65;;;10.15;;
78989;SDS011;68390;52.130;21.218;2023-09-19T10:19:35;12.43;;;7.80;;
78989;SDS011;68390;52.130;21.218;2023-09-19T10:22:02;10.88;;;7.20;;
78989;SDS011;68390;52.130;21.218;2023-09-19T10:24:30;17.08;;;8.23;;
78989;SDS011;68390;52.130;21.218;2023-09-19T10:26:59;15.95;;;8.23;;
78989;SDS011;68390;52.130;21.218;2023-09-19T10:29:25;10.18;;;7.97;;
78989;SDS011;68390;52.130;21.218;2023-09-19T10:31:54;14.10;;;9.50;;
78989;SDS011;68390;52.130;21.218;2023-09-19T10:36:50;19.73;;;9.38;;
78989;SDS011;68390;52.130;21.218;2023-09-19T10:39:16;16.95;;;10.27;;
78989;SDS011;68390;52.130;21.218;2023-09-19T10:41:50;12.90;;;9.77;;
78989;SDS011;68390;52.130;21.218;2023-09-19T10:44:25;12.95;;;8.95;;
78989;SDS011;68390;52.130;21.218;2023-09-19T10:46:51;14.68;;;9.45;;
78989;SDS011;68390;52.130;21.218;2023-09-19T10:49:18;16.98;;;9.95;;
78989;SDS011;68390;52.130;21.218;2023-09-19T10:51:44;13.95;;;9.32;;
78989;SDS011;68390;52.130;21.218;2023-09-19T10:54:15;13.48;;;9.38;;
78989;SDS011;68390;52.130;21.218;2023-09-19T10:56:47;14.02;;;9.05;;
78989;SDS011;68390;52.130;21.218;2023-09-19T10:59:16;11.00;;;7.63;;
78989;SDS011;68390;52.130;21.218;2023-09-19T11:04:34;10.75;;;8.02;;
78989;SDS011;68390;52.130;21.218;2023-09-19T11:07:01;15.43;;;9.25;;
78989;SDS011;68390;52.130;21.218;2023-09-19T11:12:58;14.55;;;8.75;;
78989;SDS011;68390;52.130;21.218;2023-09-19T11:15:10;12.82;;;9.30;;
78989;SDS011;68390;52.130;21.218;2023-09-19T11:26:47;15.13;;;9.40;;
78989;SDS011;68390;52.130;21.218;2023-09-19T11:29:28;14.80;;;8.95;;
78989;SDS011;68390;52.130;21.218;2023-09-19T11:31:55;12.25;;;8.75;;
78989;SDS011;68390;52.130;21.218;2023-09-19T11:34:37;15.70;;;8.85;;
78989;SDS011;68390;52.130;21.218;2023-09-19T11:37:03;13.02;;;7.65;;
78989;SDS011;68390;52.130;21.218;2023-09-19T11:40:06;13.02;;;8.32;;
78989;SDS011;68390;52.130;21.218;2023-09-19T11:42:45;14.63;;;8.80;;
78989;SDS011;68390;52.130;21.218;2023-09-19T11:48:11;14.18;;;8.73;;
78989;SDS011;68390;52.130;21.218;2023-09-19T11:50:44;12.30;;;9.13;;
78989;SDS011;68390;52.130;21.218;2023-09-19T11:53:13;15.27;;;9.40;;
78989;SDS011;68390;52.130;21.218;2023-09-19T11:55:41;14.32;;;9.40;;
78989;SDS011;68390;52.130;21.218;2023-09-19T11:58:08;13.50;;;9.07;;
78989;SDS011;68390;52.130;21.218;2023-09-19T12:00:34;15.20;;;10.25;;
78989;SDS011;68390;52.130;21.218;2023-09-19T12:03:05;16.60;;;9.63;;
78989;SDS011;68390;52.130;21.218;2023-09-19T12:05:34;15.10;;;10.40;;
78989;SDS011;68390;52.130;21.218;2023-09-19T12:08:00;16.83;;;9.88;;
78989;SDS011;68390;52.130;21.218;2023-09-19T12:10:26;15.45;;;10.25;;
78989;SDS011;68390;52.130;21.218;2023-09-19T12:12:52;16.43;;;11.03;;
78989;SDS011;68390;52.130;21.218;2023-09-19T12:15:24;14.68;;;9.30;;
78989;SDS011;68390;52.130;21.218;2023-09-19T12:17:54;16.17;;;11.65;;
78989;SDS011;68390;52.130;21.218;2023-09-19T12:20:19;14.23;;;10.50;;
78989;SDS011;68390;52.130;21.218;2023-09-19T12:22:46;12.57;;;9.55;;
78989;SDS011;68390;52.130;21.218;2023-09-19T12:25:15;19.35;;;11.60;;
78989;SDS011;68390;52.130;21.218;2023-09-19T12:30:09;16.38;;;10.88;;
78989;SDS011;68390;52.130;21.218;2023-09-19T12:32:39;16.48;;;11.23;;
78989;SDS011;68390;52.130;21.218;2023-09-19T12:35:07;14.73;;;11.32;;
78989;SDS011;68390;52.130;21.218;2023-09-19T12:37:51;15.07;;;10.45;;
78989;SDS011;68390;52.130;21.218;2023-09-19T12:40:18;12.70;;;9.75;;
78989;SDS011;68390;52.130;21.218;2023-09-19T12:42:47;14.32;;;9.10;;
78989;SDS011;68390;52.130;21.218;2023-09-19T12:45:14;14.57;;;9.93;;
78989;SDS011;68390;52.130;21.218;2023-09-19T12:51:02;14.43;;;9.70;;
78989;SDS011;68390;52.130;21.218;2023-09-19T12:53:33;12.13;;;8.48;;
78989;SDS011;68390;52.130;21.218;2023-09-19T12:56:02;13.50;;;9.18;;
78989;SDS011;68390;52.130;21.218;2023-09-19T12:58:31;14.10;;;9.35;;
78989;SDS011;68390;52.130;21.218;2023-09-19T13:00:57;11.05;;;8.10;;
78989;SDS011;68390;52.130;21.218;2023-09-19T13:05:53;12.70;;;8.18;;
78989;SDS011;68390;52.130;21.218;2023-09-19T13:08:24;11.95;;;7.75;;
78989;SDS011;68390;52.130;21.218;2023-09-19T13:13:42;10.38;;;7.45;;
78989;SDS011;68390;52.130;21.218;2023-09-19T13:16:10;11.65;;;7.60;;
78989;SDS011;68390;52.130;21.218;2023-09-19T13:21:13;9.00;;;6.43;;
78989;SDS011;68390;52.130;21.218;2023-09-19T13:23:55;10.82;;;7.13;;
78989;SDS011;68390;52.130;21.218;2023-09-19T13:26:27;11.43;;;7.25;;
78989;SDS011;68390;52.130;21.218;2023-09-19T13:28:53;9.82;;;5.75;;
78989;SDS011;68390;52.130;21.218;2023-09-19T13:31:19;10.52;;;6.80;;
78989;SDS011;68390;52.130;21.218;2023-09-19T13:33:45;9.57;;;7.20;;
78989;SDS011;68390;52.130;21.218;2023-09-19T13:36:12;14.32;;;8.00;;
78989;SDS011;68390;52.130;21.218;2023-09-19T13:38:41;10.85;;;7.63;;
78989;SDS011;68390;52.130;21.218;2023-09-19T13:41:09;11.02;;;7.25;;
78989;SDS011;68390;52.130;21.218;2023-09-19T13:43:36;8.45;;;5.95;;
78989;SDS011;68390;52.130;21.218;2023-09-19T13:46:02;7.55;;;5.28;;
78989;SDS011;68390;52.130;21.218;2023-09-19T13:48:28;12.05;;;8.02;;
78989;SDS011;68390;52.130;21.218;2023-09-19T13:50:55;10.23;;;8.02;;
78989;SDS011;68390;52.130;21.218;2023-09-19T13:53:20;12.50;;;8.32;;
78989;SDS011;68390;52.130;21.218;2023-09-19T13:55:46;12.50;;;7.68;;
78989;SDS011;68390;52.130;21.218;2023-09-19T13:58:12;11.95;;;8.25;;
78989;SDS011;68390;52.130;21.218;2023-09-19T14:00:37;11.02;;;7.50;;
78989;SDS011;68390;52.130;21.218;2023-09-19T14:03:03;11.25;;;7.50;;
78989;SDS011;68390;52.130;21.218;2023-09-19T14:05:29;11.30;;;7.30;;
78989;SDS011;68390;52.130;21.218;2023-09-19T14:07:55;11.32;;;7.45;;
78989;SDS011;68390;52.130;21.218;2023-09-19T14:10:21;13.32;;;7.45;;
78989;SDS011;68390;52.130;21.218;2023-09-19T14:12:46;11.90;;;7.60;;
78989;SDS011;68390;52.130;21.218;2023-09-19T14:15:13;14.88;;;8.18;;
78989;SDS011;68390;52.130;21.218;2023-09-19T14:17:39;13.65;;;8.27;;
78989;SDS011;68390;52.130;21.218;2023-09-19T14:20:07;12.65;;;7.70;;
78989;SDS011;68390;52.130;21.218;2023-09-19T14:22:35;13.10;;;8.45;;
78989;SDS011;68390;52.130;21.218;2023-09-19T14:25:01;11.80;;;8.23;;
78989;SDS011;68390;52.130;21.218;2023-09-19T14:27:30;12.85;;;8.10;;
78989;SDS011;68390;52.130;21.218;2023-09-19T14:29:55;10.65;;;8.02;;
78989;SDS011;68390;52.130;21.218;2023-09-19T14:32:22;11.75;;;7.53;;
78989;SDS011;68390;52.130;21.218;2023-09-19T14:34:47;11.45;;;7.22;;
78989;SDS011;68390;52.130;21.218;2023-09-19T14:37:14;14.50;;;8.45;;
78989;SDS011;68390;52.130;21.218;2023-09-19T14:39:41;13.60;;;8.32;;
78989;SDS011;68390;52.130;21.218;2023-09-19T14:42:09;10.93;;;8.15;;
78989;SDS011;68390;52.130;21.218;2023-09-19T14:44:35;12.68;;;7.80;;
78989;SDS011;68390;52.130;21.218;2023-09-19T14:47:02;11.88;;;7.97;;
78989;SDS011;68390;52.130;21.218;2023-09-19T14:49:29;14.35;;;8.43;;
78989;SDS011;68390;52.130;21.218;2023-09-19T14:51:55;13.90;;;8.88;;
78989;SDS011;68390;52.130;21.218;2023-09-19T14:54:20;14.52;;;8.65;;
78989;SDS011;68390;52.130;21.218;2023-09-19T14:56:46;12.45;;;7.72;;
78989;SDS011;68390;52.130;21.218;2023-09-19T14:59:18;11.00;;;7.63;;
78989;SDS011;68390;52.130;21.218;2023-09-19T15:01:45;16.13;;;8.95;;
78989;SDS011;68390;52.130;21.218;2023-09-19T15:04:10;16.52;;;9.07;;
78989;SDS011;68390;52.130;21.218;2023-09-19T15:06:36;15.18;;;9.48;;
78989;SDS011;68390;52.130;21.218;2023-09-19T15:09:01;14.57;;;9.18;;
78989;SDS011;68390;52.130;21.218;2023-09-19T15:11:29;13.05;;;8.52;;
78989;SDS011;68390;52.130;21.218;2023-09-19T15:13:55;13.05;;;7.57;;
78989;SDS011;68390;52.130;21.218;2023-09-19T15:16:21;13.52;;;9.75;;
78989;SDS011;68390;52.130;21.218;2023-09-19T15:18:47;14.77;;;9.50;;
78989;SDS011;68390;52.130;21.218;2023-09-19T15:21:13;9.77;;;7.25;;